sensor_id;sensor_type;location;lat;lon;timestamp;temperature;humidity
15844;DHT22;50807;52.436;13.346;2023-01-29T00:00:19;4.50;80.80
15844;DHT22;50807;52.436;13.346;2023-01-29T00:00:51;4.50;81.00
15844;DHT22;50807;52.436;13.346;2023-01-29T00:01:22;4.50;80.90
15844;DHT22;50807;52.436;13.346;2023-01-29T00:01:54;4.50;80.90
15844;DHT22;50807;52.436;13.346;2023-01-29T00:02:25;4.50;80.90
15844;DHT22;50807;52.436;13.346;2023-01-29T00:02:57;4.50;80.90
15844;DHT22;50807;52.436;13.346;2023-01-29T00:03:27;4.50;80.90
15844;DHT22;50807;52.436;13.346;2023-01-29T00:03:58;4.50;80.90
15844;DHT22;50807;52.436;13.346;2023-01-29T00:04:30;4.50;80.90
15844;DHT22;50807;52.436;13.346;2023-01-29T00:05:03;4.50;80.90
15844;DHT22;50807;52.436;13.346;2023-01-29T00:05:35;4.50;80.90
15844;DHT22;50807;52.436;13.346;2023-01-29T00:06:08;4.50;80.80
15844;DHT22;50807;52.436;13.346;2023-01-29T00:06:39;4.60;80.90
15844;DHT22;50807;52.436;13.346;2023-01-29T00:07:10;4.60;80.90
15844;DHT22;50807;52.436;13.346;2023-01-29T00:07:42;4.50;80.90
15844;DHT22;50807;52.436;13.346;2023-01-29T00:08:13;4.50;80.80
15844;DHT22;50807;52.436;13.346;2023-01-29T00:08:44;4.50;80.90
15844;DHT22;50807;52.436;13.346;2023-01-29T00:09:16;4.50;81.60
15844;DHT22;50807;52.436;13.346;2023-01-29T00:09:47;4.60;81.10
15844;DHT22;50807;52.436;13.346;2023-01-29T00:10:19;4.60;81.00
15844;DHT22;50807;52.436;13.346;2023-01-29T00:10:50;4.60;81.00
15844;DHT22;50807;52.436;13.346;2023-01-29T00:11:21;4.60;81.10
15844;DHT22;50807;52.436;13.346;2023-01-29T00:11:54;4.60;81.00
15844;DHT22;50807;52.436;13.346;2023-01-29T00:12:26;4.60;81.00
15844;DHT22;50807;52.436;13.346;2023-01-29T00:12:57;4.60;81.00
15844;DHT22;50807;52.436;13.346;2023-01-29T00:13:28;4.60;81.00
15844;DHT22;50807;52.436;13.346;2023-01-29T00:13:59;4.60;81.00
15844;DHT22;50807;52.436;13.346;2023-01-29T00:14:30;4.50;81.00
15844;DHT22;50807;52.436;13.346;2023-01-29T00:15:02;4.50;80.90
15844;DHT22;50807;52.436;13.346;2023-01-29T00:15:34;4.60;81.10
15844;DHT22;50807;52.436;13.346;2023-01-29T00:16:05;4.60;81.00
15844;DHT22;50807;52.436;13.346;2023-01-29T00:16:37;4.60;81.10
15844;DHT22;50807;52.436;13.346;2023-01-29T00:17:08;4.60;81.10
15844;DHT22;50807;52.436;13.346;2023-01-29T00:17:39;4.60;81.10
15844;DHT22;50807;52.436;13.346;2023-01-29T00:18:11;4.60;81.10
15844;DHT22;50807;52.436;13.346;2023-01-29T00:18:41;4.60;81.10
15844;DHT22;50807;52.436;13.346;2023-01-29T00:19:12;4.60;81.10
15844;DHT22;50807;52.436;13.346;2023-01-29T00:19:44;4.60;81.10
15844;DHT22;50807;52.436;13.346;2023-01-29T00:20:16;4.50;81.10
15844;DHT22;50807;52.436;13.346;2023-01-29T00:20:47;4.60;81.30
15844;DHT22;50807;52.436;13.346;2023-01-29T00:21:20;4.60;81.30
15844;DHT22;50807;52.436;13.346;2023-01-29T00:21:52;4.60;81.30
15844;DHT22;50807;52.436;13.346;2023-01-29T00:22:23;4.60;81.30
15844;DHT22;50807;52.436;13.346;2023-01-29T00:22:54;4.60;81.30
15844;DHT22;50807;52.436;13.346;2023-01-29T00:23:25;4.60;81.30
15844;DHT22;50807;52.436;13.346;2023-01-29T00:23:57;4.60;81.30
15844;DHT22;50807;52.436;13.346;2023-01-29T00:24:28;4.60;81.30
15844;DHT22;50807;52.436;13.346;2023-01-29T00:24:59;4.60;81.30
15844;DHT22;50807;52.436;13.346;2023-01-29T00:25:31;4.60;81.30
15844;DHT22;50807;52.436;13.346;2023-01-29T00:26:01;4.60;81.30
15844;DHT22;50807;52.436;13.346;2023-01-29T00:26:32;4.60;81.30
15844;DHT22;50807;52.436;13.346;2023-01-29T00:27:04;4.60;81.30
15844;DHT22;50807;52.436;13.346;2023-01-29T00:27:35;4.60;81.30
15844;DHT22;50807;52.436;13.346;2023-01-29T00:28:06;4.60;81.30
15844;DHT22;50807;52.436;13.346;2023-01-29T00:28:38;4.60;81.30
15844;DHT22;50807;52.436;13.346;2023-01-29T00:29:09;4.60;81.30
15844;DHT22;50807;52.436;13.346;2023-01-29T00:29:41;4.60;81.30
15844;DHT22;50807;52.436;13.346;2023-01-29T00:30:12;4.60;81.30
15844;DHT22;50807;52.436;13.346;2023-01-29T00:30:43;4.60;82.10
15844;DHT22;50807;52.436;13.346;2023-01-29T00:31:15;4.60;81.30
15844;DHT22;50807;52.436;13.346;2023-01-29T00:31:49;4.60;81.40
15844;DHT22;50807;52.436;13.346;2023-01-29T00:32:19;4.60;81.30
15844;DHT22;50807;52.436;13.346;2023-01-29T00:32:50;4.60;81.30
15844;DHT22;50807;52.436;13.346;2023-01-29T00:33:28;4.60;81.40
15844;DHT22;50807;52.436;13.346;2023-01-29T00:33:59;4.60;81.40
15844;DHT22;50807;52.436;13.346;2023-01-29T00:34:29;4.60;81.30
15844;DHT22;50807;52.436;13.346;2023-01-29T00:35:01;4.60;81.30
15844;DHT22;50807;52.436;13.346;2023-01-29T00:35:33;4.60;81.40
15844;DHT22;50807;52.436;13.346;2023-01-29T00:36:07;4.60;81.40
15844;DHT22;50807;52.436;13.346;2023-01-29T00:36:40;4.60;81.50
15844;DHT22;50807;52.436;13.346;2023-01-29T00:37:14;4.60;81.40
15844;DHT22;50807;52.436;13.346;2023-01-29T00:37:45;4.60;81.30
15844;DHT22;50807;52.436;13.346;2023-01-29T00:38:16;4.60;81.40
15844;DHT22;50807;52.436;13.346;2023-01-29T00:38:52;4.50;81.40
15844;DHT22;50807;52.436;13.346;2023-01-29T00:39:27;4.50;81.50
15844;DHT22;50807;52.436;13.346;2023-01-29T00:40:08;4.60;81.60
15844;DHT22;50807;52.436;13.346;2023-01-29T00:40:40;4.50;81.60
15844;DHT22;50807;52.436;13.346;2023-01-29T00:41:31;4.50;81.50
15844;DHT22;50807;52.436;13.346;2023-01-29T00:42:20;4.60;81.60
15844;DHT22;50807;52.436;13.346;2023-01-29T00:43:10;4.60;81.60
15844;DHT22;50807;52.436;13.346;2023-01-29T00:43:59;4.60;81.40
15844;DHT22;50807;52.436;13.346;2023-01-29T00:44:49;4.60;81.30
15844;DHT22;50807;52.436;13.346;2023-01-29T00:45:30;4.60;81.30
15844;DHT22;50807;52.436;13.346;2023-01-29T00:46:01;4.60;81.10
15844;DHT22;50807;52.436;13.346;2023-01-29T00:46:32;4.60;81.00
15844;DHT22;50807;52.436;13.346;2023-01-29T00:47:04;4.60;81.20
15844;DHT22;50807;52.436;13.346;2023-01-29T00:47:56;4.60;81.30
15844;DHT22;50807;52.436;13.346;2023-01-29T00:48:28;4.60;81.20
15844;DHT22;50807;52.436;13.346;2023-01-29T00:48:58;4.60;81.20
15844;DHT22;50807;52.436;13.346;2023-01-29T00:49:29;4.60;81.30
15844;DHT22;50807;52.436;13.346;2023-01-29T00:50:04;4.60;81.30
15844;DHT22;50807;52.436;13.346;2023-01-29T00:50:37;4.60;81.50
15844;DHT22;50807;52.436;13.346;2023-01-29T00:51:08;4.60;81.40
15844;DHT22;50807;52.436;13.346;2023-01-29T00:51:40;4.50;81.40
15844;DHT22;50807;52.436;13.346;2023-01-29T00:52:10;4.50;81.40
15844;DHT22;50807;52.436;13.346;2023-01-29T00:53:02;4.50;81.40
15844;DHT22;50807;52.436;13.346;2023-01-29T00:53:33;4.60;81.60
15844;DHT22;50807;52.436;13.346;2023-01-29T00:54:05;4.60;81.50
15844;DHT22;50807;52.436;13.346;2023-01-29T00:54:36;4.50;81.60
15844;DHT22;50807;52.436;13.346;2023-01-29T00:55:09;4.50;81.60
15844;DHT22;50807;52.436;13.346;2023-01-29T00:55:40;4.50;81.70
15844;DHT22;50807;52.436;13.346;2023-01-29T00:56:11;4.50;81.70
15844;DHT22;50807;52.436;13.346;2023-01-29T00:56:43;4.50;81.70
15844;DHT22;50807;52.436;13.346;2023-01-29T00:57:14;4.50;81.70
15844;DHT22;50807;52.436;13.346;2023-01-29T00:57:45;4.50;81.70
15844;DHT22;50807;52.436;13.346;2023-01-29T00:58:17;4.50;81.80
15844;DHT22;50807;52.436;13.346;2023-01-29T00:58:51;4.50;81.80
15844;DHT22;50807;52.436;13.346;2023-01-29T00:59:22;4.50;81.80
15844;DHT22;50807;52.436;13.346;2023-01-29T00:59:54;4.50;81.80
15844;DHT22;50807;52.436;13.346;2023-01-29T01:00:25;4.50;81.80
15844;DHT22;50807;52.436;13.346;2023-01-29T01:00:56;4.50;81.90
15844;DHT22;50807;52.436;13.346;2023-01-29T01:01:27;4.50;82.00
15844;DHT22;50807;52.436;13.346;2023-01-29T01:02:17;4.50;82.00
15844;DHT22;50807;52.436;13.346;2023-01-29T01:03:06;4.50;82.20
15844;DHT22;50807;52.436;13.346;2023-01-29T01:03:39;4.50;82.20
15844;DHT22;50807;52.436;13.346;2023-01-29T01:04:12;4.50;82.10
15844;DHT22;50807;52.436;13.346;2023-01-29T01:04:42;4.50;82.10
15844;DHT22;50807;52.436;13.346;2023-01-29T01:05:15;4.50;82.00
15844;DHT22;50807;52.436;13.346;2023-01-29T01:05:48;4.50;82.20
15844;DHT22;50807;52.436;13.346;2023-01-29T01:06:20;4.50;82.10
15844;DHT22;50807;52.436;13.346;2023-01-29T01:06:51;4.50;82.10
15844;DHT22;50807;52.436;13.346;2023-01-29T01:07:22;4.50;82.20
15844;DHT22;50807;52.436;13.346;2023-01-29T01:07:54;4.50;82.30
15844;DHT22;50807;52.436;13.346;2023-01-29T01:08:27;4.50;82.40
15844;DHT22;50807;52.436;13.346;2023-01-29T01:09:16;4.50;82.40
15844;DHT22;50807;52.436;13.346;2023-01-29T01:10:07;4.50;82.40
15844;DHT22;50807;52.436;13.346;2023-01-29T01:11:03;4.50;82.30
15844;DHT22;50807;52.436;13.346;2023-01-29T01:11:35;4.50;82.30
15844;DHT22;50807;52.436;13.346;2023-01-29T01:12:06;4.50;82.10
15844;DHT22;50807;52.436;13.346;2023-01-29T01:12:38;4.60;82.10
15844;DHT22;50807;52.436;13.346;2023-01-29T01:13:09;4.50;82.10
15844;DHT22;50807;52.436;13.346;2023-01-29T01:13:39;4.50;82.20
15844;DHT22;50807;52.436;13.346;2023-01-29T01:14:11;4.50;82.30
15844;DHT22;50807;52.436;13.346;2023-01-29T01:14:42;4.50;82.30
15844;DHT22;50807;52.436;13.346;2023-01-29T01:15:13;4.50;82.30
15844;DHT22;50807;52.436;13.346;2023-01-29T01:15:44;4.50;82.40
15844;DHT22;50807;52.436;13.346;2023-01-29T01:16:17;4.50;82.50
15844;DHT22;50807;52.436;13.346;2023-01-29T01:16:48;4.50;82.60
15844;DHT22;50807;52.436;13.346;2023-01-29T01:17:19;4.50;82.50
15844;DHT22;50807;52.436;13.346;2023-01-29T01:17:52;4.50;82.50
15844;DHT22;50807;52.436;13.346;2023-01-29T01:18:23;4.50;82.70
15844;DHT22;50807;52.436;13.346;2023-01-29T01:18:54;4.50;82.60
15844;DHT22;50807;52.436;13.346;2023-01-29T01:19:26;4.50;82.70
15844;DHT22;50807;52.436;13.346;2023-01-29T01:19:57;4.50;82.80
15844;DHT22;50807;52.436;13.346;2023-01-29T01:20:30;4.50;82.80
15844;DHT22;50807;52.436;13.346;2023-01-29T01:21:05;4.50;82.90
15844;DHT22;50807;52.436;13.346;2023-01-29T01:21:36;4.50;82.80
15844;DHT22;50807;52.436;13.346;2023-01-29T01:22:07;4.50;83.00
15844;DHT22;50807;52.436;13.346;2023-01-29T01:22:38;4.50;83.00
15844;DHT22;50807;52.436;13.346;2023-01-29T01:23:09;4.50;83.00
15844;DHT22;50807;52.436;13.346;2023-01-29T01:23:40;4.50;83.00
15844;DHT22;50807;52.436;13.346;2023-01-29T01:24:11;4.50;83.00
15844;DHT22;50807;52.436;13.346;2023-01-29T01:24:43;4.50;83.10
15844;DHT22;50807;52.436;13.346;2023-01-29T01:25:14;4.50;83.00
15844;DHT22;50807;52.436;13.346;2023-01-29T01:25:45;4.50;83.10
15844;DHT22;50807;52.436;13.346;2023-01-29T01:26:17;4.50;83.10
15844;DHT22;50807;52.436;13.346;2023-01-29T01:26:48;4.50;83.10
15844;DHT22;50807;52.436;13.346;2023-01-29T01:27:19;4.50;83.00
15844;DHT22;50807;52.436;13.346;2023-01-29T01:27:51;4.50;83.20
15844;DHT22;50807;52.436;13.346;2023-01-29T01:28:22;4.50;83.30
15844;DHT22;50807;52.436;13.346;2023-01-29T01:28:53;4.50;83.30
15844;DHT22;50807;52.436;13.346;2023-01-29T01:29:25;4.60;83.30
15844;DHT22;50807;52.436;13.346;2023-01-29T01:29:56;4.50;83.30
15844;DHT22;50807;52.436;13.346;2023-01-29T01:30:27;4.60;83.40
15844;DHT22;50807;52.436;13.346;2023-01-29T01:31:07;4.60;83.40
15844;DHT22;50807;52.436;13.346;2023-01-29T01:31:39;4.60;83.60
15844;DHT22;50807;52.436;13.346;2023-01-29T01:32:10;4.60;83.40
15844;DHT22;50807;52.436;13.346;2023-01-29T01:32:41;4.60;83.50
15844;DHT22;50807;52.436;13.346;2023-01-29T01:33:13;4.60;83.50
15844;DHT22;50807;52.436;13.346;2023-01-29T01:33:44;4.60;83.40
15844;DHT22;50807;52.436;13.346;2023-01-29T01:34:14;4.60;83.40
15844;DHT22;50807;52.436;13.346;2023-01-29T01:34:46;4.60;83.40
15844;DHT22;50807;52.436;13.346;2023-01-29T01:35:17;4.60;83.40
15844;DHT22;50807;52.436;13.346;2023-01-29T01:35:48;4.60;83.40
15844;DHT22;50807;52.436;13.346;2023-01-29T01:36:21;4.60;83.40
15844;DHT22;50807;52.436;13.346;2023-01-29T01:36:52;4.60;83.50
15844;DHT22;50807;52.436;13.346;2023-01-29T01:37:25;4.60;84.20
15844;DHT22;50807;52.436;13.346;2023-01-29T01:37:56;4.60;83.40
15844;DHT22;50807;52.436;13.346;2023-01-29T01:38:27;4.60;83.40
15844;DHT22;50807;52.436;13.346;2023-01-29T01:38:58;4.70;83.50
15844;DHT22;50807;52.436;13.346;2023-01-29T01:39:29;4.60;83.40
15844;DHT22;50807;52.436;13.346;2023-01-29T01:40:01;4.70;83.50
15844;DHT22;50807;52.436;13.346;2023-01-29T01:40:32;4.70;83.50
15844;DHT22;50807;52.436;13.346;2023-01-29T01:41:03;4.70;83.50
15844;DHT22;50807;52.436;13.346;2023-01-29T01:41:35;4.70;83.60
15844;DHT22;50807;52.436;13.346;2023-01-29T01:42:10;4.70;83.60
15844;DHT22;50807;52.436;13.346;2023-01-29T01:42:42;4.70;83.70
15844;DHT22;50807;52.436;13.346;2023-01-29T01:43:14;4.70;83.60
15844;DHT22;50807;52.436;13.346;2023-01-29T01:43:47;4.60;83.50
15844;DHT22;50807;52.436;13.346;2023-01-29T01:44:48;4.70;83.70
15844;DHT22;50807;52.436;13.346;2023-01-29T01:45:26;4.70;83.70
15844;DHT22;50807;52.436;13.346;2023-01-29T01:45:58;4.70;83.60
15844;DHT22;50807;52.436;13.346;2023-01-29T01:46:31;4.80;83.50
15844;DHT22;50807;52.436;13.346;2023-01-29T01:47:03;4.70;83.50
15844;DHT22;50807;52.436;13.346;2023-01-29T01:47:39;4.70;83.40
15844;DHT22;50807;52.436;13.346;2023-01-29T01:48:15;4.70;83.70
15844;DHT22;50807;52.436;13.346;2023-01-29T01:48:52;4.70;83.70
15844;DHT22;50807;52.436;13.346;2023-01-29T01:49:25;4.80;83.80
15844;DHT22;50807;52.436;13.346;2023-01-29T01:50:00;4.70;83.50
15844;DHT22;50807;52.436;13.346;2023-01-29T01:50:41;4.80;83.70
15844;DHT22;50807;52.436;13.346;2023-01-29T01:51:15;4.80;83.70
15844;DHT22;50807;52.436;13.346;2023-01-29T01:51:50;4.80;83.60
15844;DHT22;50807;52.436;13.346;2023-01-29T01:52:22;4.80;83.70
15844;DHT22;50807;52.436;13.346;2023-01-29T01:52:57;4.80;83.70
15844;DHT22;50807;52.436;13.346;2023-01-29T01:53:34;4.80;83.70
15844;DHT22;50807;52.436;13.346;2023-01-29T01:54:11;4.70;83.70
15844;DHT22;50807;52.436;13.346;2023-01-29T01:54:47;4.70;83.70
15844;DHT22;50807;52.436;13.346;2023-01-29T01:55:22;4.80;83.70
15844;DHT22;50807;52.436;13.346;2023-01-29T01:55:59;4.80;83.70
15844;DHT22;50807;52.436;13.346;2023-01-29T01:56:34;4.70;83.70
15844;DHT22;50807;52.436;13.346;2023-01-29T01:57:13;4.80;83.60
15844;DHT22;50807;52.436;13.346;2023-01-29T01:57:52;4.80;83.60
15844;DHT22;50807;52.436;13.346;2023-01-29T01:58:31;4.80;83.70
15844;DHT22;50807;52.436;13.346;2023-01-29T01:59:06;4.80;83.60
15844;DHT22;50807;52.436;13.346;2023-01-29T01:59:39;4.80;83.70
15844;DHT22;50807;52.436;13.346;2023-01-29T02:00:17;4.80;83.60
15844;DHT22;50807;52.436;13.346;2023-01-29T02:00:51;4.80;83.70
15844;DHT22;50807;52.436;13.346;2023-01-29T02:01:24;4.80;83.60
15844;DHT22;50807;52.436;13.346;2023-01-29T02:01:57;4.70;83.60
15844;DHT22;50807;52.436;13.346;2023-01-29T02:02:28;4.80;83.60
15844;DHT22;50807;52.436;13.346;2023-01-29T02:03:18;4.80;83.60
15844;DHT22;50807;52.436;13.346;2023-01-29T02:04:13;4.80;83.60
15844;DHT22;50807;52.436;13.346;2023-01-29T02:05:06;4.80;83.60
15844;DHT22;50807;52.436;13.346;2023-01-29T02:05:59;4.80;83.50
15844;DHT22;50807;52.436;13.346;2023-01-29T02:06:51;4.80;83.30
15844;DHT22;50807;52.436;13.346;2023-01-29T02:07:44;4.80;83.30
15844;DHT22;50807;52.436;13.346;2023-01-29T02:08:43;4.80;83.80
15844;DHT22;50807;52.436;13.346;2023-01-29T02:09:40;4.70;83.10
15844;DHT22;50807;52.436;13.346;2023-01-29T02:10:17;4.80;83.10
15844;DHT22;50807;52.436;13.346;2023-01-29T02:10:50;4.80;83.00
15844;DHT22;50807;52.436;13.346;2023-01-29T02:11:21;4.80;83.00
15844;DHT22;50807;52.436;13.346;2023-01-29T02:11:52;4.70;82.90
15844;DHT22;50807;52.436;13.346;2023-01-29T02:12:24;4.80;83.00
15844;DHT22;50807;52.436;13.346;2023-01-29T02:12:55;4.80;83.00
15844;DHT22;50807;52.436;13.346;2023-01-29T02:13:26;4.70;83.20
15844;DHT22;50807;52.436;13.346;2023-01-29T02:13:58;4.70;83.10
15844;DHT22;50807;52.436;13.346;2023-01-29T02:14:29;4.70;83.20
15844;DHT22;50807;52.436;13.346;2023-01-29T02:15:01;4.70;83.40
15844;DHT22;50807;52.436;13.346;2023-01-29T02:15:33;4.70;83.30
15844;DHT22;50807;52.436;13.346;2023-01-29T02:16:04;4.70;83.40
15844;DHT22;50807;52.436;13.346;2023-01-29T02:16:36;4.70;84.10
15844;DHT22;50807;52.436;13.346;2023-01-29T02:17:10;4.60;83.50
15844;DHT22;50807;52.436;13.346;2023-01-29T02:17:42;4.60;83.70
15844;DHT22;50807;52.436;13.346;2023-01-29T02:18:19;4.60;83.50
15844;DHT22;50807;52.436;13.346;2023-01-29T02:18:51;4.60;83.70
15844;DHT22;50807;52.436;13.346;2023-01-29T02:19:31;4.60;83.80
15844;DHT22;50807;52.436;13.346;2023-01-29T02:20:17;4.60;83.80
15844;DHT22;50807;52.436;13.346;2023-01-29T02:21:14;4.60;84.00
15844;DHT22;50807;52.436;13.346;2023-01-29T02:22:12;4.60;84.20
15844;DHT22;50807;52.436;13.346;2023-01-29T02:25:49;4.70;83.80
15844;DHT22;50807;52.436;13.346;2023-01-29T02:26:44;4.70;83.70
15844;DHT22;50807;52.436;13.346;2023-01-29T02:27:28;4.70;83.60
15844;DHT22;50807;52.436;13.346;2023-01-29T02:29:19;4.70;83.50
15844;DHT22;50807;52.436;13.346;2023-01-29T02:30:02;4.70;83.30
15844;DHT22;50807;52.436;13.346;2023-01-29T02:30:39;4.70;83.30
15844;DHT22;50807;52.436;13.346;2023-01-29T02:31:18;4.70;83.30
15844;DHT22;50807;52.436;13.346;2023-01-29T02:32:03;4.70;83.40
15844;DHT22;50807;52.436;13.346;2023-01-29T02:32:50;4.70;83.40
15844;DHT22;50807;52.436;13.346;2023-01-29T02:33:39;4.70;83.50
15844;DHT22;50807;52.436;13.346;2023-01-29T02:34:23;4.70;83.70
15844;DHT22;50807;52.436;13.346;2023-01-29T02:35:24;4.60;83.70
15844;DHT22;50807;52.436;13.346;2023-01-29T02:36:07;4.70;83.70
15844;DHT22;50807;52.436;13.346;2023-01-29T02:36:50;4.70;83.60
15844;DHT22;50807;52.436;13.346;2023-01-29T02:37:32;4.60;83.60
15844;DHT22;50807;52.436;13.346;2023-01-29T02:38:16;4.70;83.70
15844;DHT22;50807;52.436;13.346;2023-01-29T02:38:58;4.70;83.80
15844;DHT22;50807;52.436;13.346;2023-01-29T02:39:36;4.60;83.80
15844;DHT22;50807;52.436;13.346;2023-01-29T02:40:16;4.60;83.90
15844;DHT22;50807;52.436;13.346;2023-01-29T02:40:56;4.60;83.90
15844;DHT22;50807;52.436;13.346;2023-01-29T02:41:37;4.60;84.00
15844;DHT22;50807;52.436;13.346;2023-01-29T02:42:18;4.60;84.10
15844;DHT22;50807;52.436;13.346;2023-01-29T02:43:03;4.60;84.10
15844;DHT22;50807;52.436;13.346;2023-01-29T02:43:46;4.60;84.20
15844;DHT22;50807;52.436;13.346;2023-01-29T02:44:23;4.60;84.30
15844;DHT22;50807;52.436;13.346;2023-01-29T02:45:07;4.60;84.40
15844;DHT22;50807;52.436;13.346;2023-01-29T02:45:46;4.60;84.30
15844;DHT22;50807;52.436;13.346;2023-01-29T02:46:26;4.60;84.30
15844;DHT22;50807;52.436;13.346;2023-01-29T02:47:06;4.70;84.50
15844;DHT22;50807;52.436;13.346;2023-01-29T02:47:47;4.60;84.50
15844;DHT22;50807;52.436;13.346;2023-01-29T02:48:28;4.70;84.50
15844;DHT22;50807;52.436;13.346;2023-01-29T02:49:15;4.60;84.50
15844;DHT22;50807;52.436;13.346;2023-01-29T02:49:58;4.70;84.70
15844;DHT22;50807;52.436;13.346;2023-01-29T02:50:37;4.70;84.60
15844;DHT22;50807;52.436;13.346;2023-01-29T02:51:18;4.70;84.70
15844;DHT22;50807;52.436;13.346;2023-01-29T02:51:59;4.70;84.70
15844;DHT22;50807;52.436;13.346;2023-01-29T02:52:39;4.70;84.70
15844;DHT22;50807;52.436;13.346;2023-01-29T02:53:22;4.70;84.60
15844;DHT22;50807;52.436;13.346;2023-01-29T02:54:00;4.70;84.70
15844;DHT22;50807;52.436;13.346;2023-01-29T02:54:40;4.70;84.70
15844;DHT22;50807;52.436;13.346;2023-01-29T02:55:17;4.70;84.60
15844;DHT22;50807;52.436;13.346;2023-01-29T02:55:57;4.70;84.60
15844;DHT22;50807;52.436;13.346;2023-01-29T02:56:36;4.70;84.60
15844;DHT22;50807;52.436;13.346;2023-01-29T02:57:16;4.70;84.70
15844;DHT22;50807;52.436;13.346;2023-01-29T02:57:54;4.70;84.70
15844;DHT22;50807;52.436;13.346;2023-01-29T02:58:32;4.70;84.70
15844;DHT22;50807;52.436;13.346;2023-01-29T02:59:11;4.70;84.70
15844;DHT22;50807;52.436;13.346;2023-01-29T02:59:50;4.70;84.70
15844;DHT22;50807;52.436;13.346;2023-01-29T03:00:27;4.70;84.70
15844;DHT22;50807;52.436;13.346;2023-01-29T03:01:05;4.70;84.60
15844;DHT22;50807;52.436;13.346;2023-01-29T03:01:44;4.70;84.70
15844;DHT22;50807;52.436;13.346;2023-01-29T03:02:22;4.70;84.80
15844;DHT22;50807;52.436;13.346;2023-01-29T03:03:02;4.70;84.80
15844;DHT22;50807;52.436;13.346;2023-01-29T03:03:40;4.70;84.80
15844;DHT22;50807;52.436;13.346;2023-01-29T03:04:20;4.70;84.80
15844;DHT22;50807;52.436;13.346;2023-01-29T03:04:59;4.70;84.80
15844;DHT22;50807;52.436;13.346;2023-01-29T03:05:38;4.80;84.90
15844;DHT22;50807;52.436;13.346;2023-01-29T03:06:19;4.80;85.00
15844;DHT22;50807;52.436;13.346;2023-01-29T03:06:56;4.80;85.00
15844;DHT22;50807;52.436;13.346;2023-01-29T03:07:34;4.70;84.90
15844;DHT22;50807;52.436;13.346;2023-01-29T03:08:17;4.70;85.00
15844;DHT22;50807;52.436;13.346;2023-01-29T03:08:56;4.80;85.10
15844;DHT22;50807;52.436;13.346;2023-01-29T03:09:33;4.70;85.00
15844;DHT22;50807;52.436;13.346;2023-01-29T03:10:12;4.70;85.80
15844;DHT22;50807;52.436;13.346;2023-01-29T03:10:51;4.80;85.20
15844;DHT22;50807;52.436;13.346;2023-01-29T03:11:31;4.80;85.20
15844;DHT22;50807;52.436;13.346;2023-01-29T03:12:12;4.80;85.20
15844;DHT22;50807;52.436;13.346;2023-01-29T03:12:52;4.70;85.10
15844;DHT22;50807;52.436;13.346;2023-01-29T03:13:29;4.80;85.20
15844;DHT22;50807;52.436;13.346;2023-01-29T03:14:11;4.80;85.20
15844;DHT22;50807;52.436;13.346;2023-01-29T03:14:49;4.80;85.20
15844;DHT22;50807;52.436;13.346;2023-01-29T03:15:42;4.80;85.20
15844;DHT22;50807;52.436;13.346;2023-01-29T03:16:23;4.80;85.20
15844;DHT22;50807;52.436;13.346;2023-01-29T03:16:59;4.80;85.20
15844;DHT22;50807;52.436;13.346;2023-01-29T03:17:35;4.80;85.10
15844;DHT22;50807;52.436;13.346;2023-01-29T03:18:14;4.80;85.20
15844;DHT22;50807;52.436;13.346;2023-01-29T03:18:53;4.80;85.20
15844;DHT22;50807;52.436;13.346;2023-01-29T03:19:33;4.80;85.30
15844;DHT22;50807;52.436;13.346;2023-01-29T03:20:12;4.80;85.30
15844;DHT22;50807;52.436;13.346;2023-01-29T03:20:50;4.80;85.30
15844;DHT22;50807;52.436;13.346;2023-01-29T03:21:30;4.80;85.30
15844;DHT22;50807;52.436;13.346;2023-01-29T03:22:29;4.80;85.30
15844;DHT22;50807;52.436;13.346;2023-01-29T03:23:05;4.80;85.30
15844;DHT22;50807;52.436;13.346;2023-01-29T03:23:39;4.80;85.40
15844;DHT22;50807;52.436;13.346;2023-01-29T03:24:35;4.80;85.30
15844;DHT22;50807;52.436;13.346;2023-01-29T03:25:28;4.80;85.40
15844;DHT22;50807;52.436;13.346;2023-01-29T03:26:21;4.90;85.40
15844;DHT22;50807;52.436;13.346;2023-01-29T03:27:13;4.90;85.30
15844;DHT22;50807;52.436;13.346;2023-01-29T03:28:09;4.90;85.30
15844;DHT22;50807;52.436;13.346;2023-01-29T03:29:02;4.90;85.20
15844;DHT22;50807;52.436;13.346;2023-01-29T03:29:56;4.90;85.00
15844;DHT22;50807;52.436;13.346;2023-01-29T03:30:49;4.90;85.10
15844;DHT22;50807;52.436;13.346;2023-01-29T03:31:41;4.90;85.10
15844;DHT22;50807;52.436;13.346;2023-01-29T03:32:32;4.90;85.10
15844;DHT22;50807;52.436;13.346;2023-01-29T03:33:07;4.90;85.00
15844;DHT22;50807;52.436;13.346;2023-01-29T03:33:44;4.90;85.10
15844;DHT22;50807;52.436;13.346;2023-01-29T03:34:21;4.90;85.10
15844;DHT22;50807;52.436;13.346;2023-01-29T03:35:02;4.80;85.20
15844;DHT22;50807;52.436;13.346;2023-01-29T03:35:39;4.90;85.30
15844;DHT22;50807;52.436;13.346;2023-01-29T03:36:20;4.80;85.20
15844;DHT22;50807;52.436;13.346;2023-01-29T03:36:57;4.80;85.40
15844;DHT22;50807;52.436;13.346;2023-01-29T03:37:35;4.80;85.40
15844;DHT22;50807;52.436;13.346;2023-01-29T03:38:12;4.80;85.40
15844;DHT22;50807;52.436;13.346;2023-01-29T03:38:43;4.80;85.30
15844;DHT22;50807;52.436;13.346;2023-01-29T03:39:15;4.80;85.40
15844;DHT22;50807;52.436;13.346;2023-01-29T03:39:48;4.80;85.50
15844;DHT22;50807;52.436;13.346;2023-01-29T03:40:19;4.80;85.50
15844;DHT22;50807;52.436;13.346;2023-01-29T03:40:52;4.80;85.60
15844;DHT22;50807;52.436;13.346;2023-01-29T03:41:32;4.80;85.60
15844;DHT22;50807;52.436;13.346;2023-01-29T03:42:12;4.80;85.70
15844;DHT22;50807;52.436;13.346;2023-01-29T03:42:58;4.80;85.80
15844;DHT22;50807;52.436;13.346;2023-01-29T03:43:44;4.80;85.80
15844;DHT22;50807;52.436;13.346;2023-01-29T03:44:25;4.80;85.80
15844;DHT22;50807;52.436;13.346;2023-01-29T03:45:10;4.80;85.80
15844;DHT22;50807;52.436;13.346;2023-01-29T03:45:51;4.80;85.70
15844;DHT22;50807;52.436;13.346;2023-01-29T03:46:37;4.80;86.40
15844;DHT22;50807;52.436;13.346;2023-01-29T03:47:16;4.80;85.70
15844;DHT22;50807;52.436;13.346;2023-01-29T03:47:55;4.80;85.70
15844;DHT22;50807;52.436;13.346;2023-01-29T03:48:37;4.80;85.70
15844;DHT22;50807;52.436;13.346;2023-01-29T03:49:20;4.80;85.70
15844;DHT22;50807;52.436;13.346;2023-01-29T03:50:02;4.80;85.70
15844;DHT22;50807;52.436;13.346;2023-01-29T03:50:43;4.80;85.60
15844;DHT22;50807;52.436;13.346;2023-01-29T03:51:26;4.80;85.70
15844;DHT22;50807;52.436;13.346;2023-01-29T03:52:03;4.80;85.70
15844;DHT22;50807;52.436;13.346;2023-01-29T03:52:49;4.80;85.70
15844;DHT22;50807;52.436;13.346;2023-01-29T03:53:33;4.80;85.80
15844;DHT22;50807;52.436;13.346;2023-01-29T03:54:17;4.80;85.70
15844;DHT22;50807;52.436;13.346;2023-01-29T03:55:00;4.80;85.90
15844;DHT22;50807;52.436;13.346;2023-01-29T03:55:42;4.90;85.90
15844;DHT22;50807;52.436;13.346;2023-01-29T03:56:33;4.80;85.90